sensor_id;sensor_type;location;lat;lon;timestamp;P1;durP1;ratioP1;P2;durP2;ratioP2
39956;SDS011;48483;44.640;7.494;2023-09-18T00:00:23;8.18;;;5.65;;
39956;SDS011;48483;44.640;7.494;2023-09-18T00:02:50;8.90;;;5.50;;
39956;SDS011;48483;44.640;7.494;2023-09-18T00:05:18;10.70;;;5.60;;
39956;SDS011;48483;44.640;7.494;2023-09-18T00:07:45;8.18;;;5.45;;
39956;SDS011;48483;44.640;7.494;2023-09-18T00:10:12;12.30;;;6.15;;
39956;SDS011;48483;44.640;7.494;2023-09-18T00:12:39;9.98;;;5.90;;
39956;SDS011;48483;44.640;7.494;2023-09-18T00:15:07;7.97;;;6.15;;
39956;SDS011;48483;44.640;7.494;2023-09-18T00:17:34;9.38;;;6.15;;
39956;SDS011;48483;44.640;7.494;2023-09-18T00:20:01;10.13;;;5.40;;
39956;SDS011;48483;44.640;7.494;2023-09-18T00:22:33;9.07;;;5.90;;
39956;SDS011;48483;44.640;7.494;2023-09-18T00:25:00;9.98;;;6.05;;
39956;SDS011;48483;44.640;7.494;2023-09-18T00:27:28;10.57;;;6.05;;
39956;SDS011;48483;44.640;7.494;2023-09-18T00:29:55;7.70;;;5.63;;
39956;SDS011;48483;44.640;7.494;2023-09-18T00:32:22;9.73;;;5.55;;
39956;SDS011;48483;44.640;7.494;2023-09-18T00:34:49;10.07;;;5.93;;
39956;SDS011;48483;44.640;7.494;2023-09-18T00:37:16;6.68;;;5.13;;
39956;SDS011;48483;44.640;7.494;2023-09-18T00:39:44;9.40;;;6.97;;
39956;SDS011;48483;44.640;7.494;2023-09-18T00:42:10;8.52;;;6.30;;
39956;SDS011;48483;44.640;7.494;2023-09-18T00:44:42;9.57;;;6.38;;
39956;SDS011;48483;44.640;7.494;2023-09-18T00:47:09;8.07;;;5.57;;
39956;SDS011;48483;44.640;7.494;2023-09-18T00:49:37;10.70;;;7.40;;
39956;SDS011;48483;44.640;7.494;2023-09-18T00:52:06;9.27;;;5.25;;
39956;SDS011;48483;44.640;7.494;2023-09-18T00:54:33;8.18;;;6.50;;
39956;SDS011;48483;44.640;7.494;2023-09-18T00:57:03;8.75;;;6.13;;
39956;SDS011;48483;44.640;7.494;2023-09-18T00:59:30;8.05;;;5.97;;
39956;SDS011;48483;44.640;7.494;2023-09-18T01:01:59;9.95;;;6.50;;
39956;SDS011;48483;44.640;7.494;2023-09-18T01:04:27;9.43;;;6.07;;
39956;SDS011;48483;44.640;7.494;2023-09-18T01:06:56;8.60;;;5.97;;
39956;SDS011;48483;44.640;7.494;2023-09-18T01:09:24;9.13;;;5.93;;
39956;SDS011;48483;44.640;7.494;2023-09-18T01:11:54;9.00;;;5.30;;
39956;SDS011;48483;44.640;7.494;2023-09-18T01:14:30;8.85;;;6.30;;
39956;SDS011;48483;44.640;7.494;2023-09-18T01:17:00;12.48;;;5.88;;
39956;SDS011;48483;44.640;7.494;2023-09-18T01:19:34;8.18;;;5.15;;
39956;SDS011;48483;44.640;7.494;2023-09-18T01:22:03;10.93;;;6.30;;
39956;SDS011;48483;44.640;7.494;2023-09-18T01:24:32;11.00;;;5.57;;
39956;SDS011;48483;44.640;7.494;2023-09-18T01:27:00;11.70;;;6.50;;
39956;SDS011;48483;44.640;7.494;2023-09-18T01:29:27;10.73;;;6.18;;
39956;SDS011;48483;44.640;7.494;2023-09-18T01:31:55;8.80;;;6.13;;
39956;SDS011;48483;44.640;7.494;2023-09-18T01:34:21;10.48;;;6.40;;
39956;SDS011;48483;44.640;7.494;2023-09-18T01:36:51;10.98;;;6.28;;
39956;SDS011;48483;44.640;7.494;2023-09-18T01:39:19;9.70;;;5.72;;
39956;SDS011;48483;44.640;7.494;2023-09-18T01:41:48;9.98;;;5.95;;
39956;SDS011;48483;44.640;7.494;2023-09-18T01:44:16;8.65;;;5.53;;
39956;SDS011;48483;44.640;7.494;2023-09-18T01:46:42;8.00;;;6.35;;
39956;SDS011;48483;44.640;7.494;2023-09-18T01:49:10;11.73;;;7.25;;
39956;SDS011;48483;44.640;7.494;2023-09-18T01:51:37;10.60;;;7.07;;
39956;SDS011;48483;44.640;7.494;2023-09-18T01:54:04;9.10;;;5.88;;
39956;SDS011;48483;44.640;7.494;2023-09-18T01:56:31;9.50;;;6.57;;
39956;SDS011;48483;44.640;7.494;2023-09-18T01:58:59;7.95;;;6.50;;
39956;SDS011;48483;44.640;7.494;2023-09-18T02:01:26;8.07;;;6.05;;
39956;SDS011;48483;44.640;7.494;2023-09-18T02:03:53;10.63;;;7.35;;
39956;SDS011;48483;44.640;7.494;2023-09-18T02:06:20;8.38;;;5.80;;
39956;SDS011;48483;44.640;7.494;2023-09-18T02:08:46;8.23;;;6.63;;
39956;SDS011;48483;44.640;7.494;2023-09-18T02:11:13;9.98;;;7.07;;
39956;SDS011;48483;44.640;7.494;2023-09-18T02:13:40;9.70;;;6.00;;
39956;SDS011;48483;44.640;7.494;2023-09-18T02:16:09;9.63;;;6.47;;
39956;SDS011;48483;44.640;7.494;2023-09-18T02:18:37;7.93;;;6.88;;
39956;SDS011;48483;44.640;7.494;2023-09-18T02:21:03;10.55;;;7.25;;
39956;SDS011;48483;44.640;7.494;2023-09-18T02:23:30;7.57;;;6.65;;
39956;SDS011;48483;44.640;7.494;2023-09-18T02:25:57;9.57;;;7.25;;
39956;SDS011;48483;44.640;7.494;2023-09-18T02:28:24;12.68;;;7.60;;
39956;SDS011;48483;44.640;7.494;2023-09-18T02:30:51;9.38;;;6.05;;
39956;SDS011;48483;44.640;7.494;2023-09-18T02:33:20;10.23;;;6.10;;
39956;SDS011;48483;44.640;7.494;2023-09-18T02:35:46;8.35;;;6.18;;
39956;SDS011;48483;44.640;7.494;2023-09-18T02:38:13;8.88;;;6.75;;
39956;SDS011;48483;44.640;7.494;2023-09-18T02:40:40;10.38;;;6.18;;
39956;SDS011;48483;44.640;7.494;2023-09-18T02:43:07;6.90;;;5.78;;
39956;SDS011;48483;44.640;7.494;2023-09-18T02:45:33;8.70;;;6.53;;
39956;SDS011;48483;44.640;7.494;2023-09-18T02:48:00;10.13;;;6.55;;
39956;SDS011;48483;44.640;7.494;2023-09-18T02:50:28;11.85;;;6.20;;
39956;SDS011;48483;44.640;7.494;2023-09-18T02:52:55;10.48;;;5.68;;
39956;SDS011;48483;44.640;7.494;2023-09-18T02:55:22;8.38;;;5.40;;
39956;SDS011;48483;44.640;7.494;2023-09-18T02:57:49;10.35;;;6.15;;
39956;SDS011;48483;44.640;7.494;2023-09-18T03:00:16;9.73;;;6.55;;
39956;SDS011;48483;44.640;7.494;2023-09-18T03:02:43;11.23;;;6.10;;
39956;SDS011;48483;44.640;7.494;2023-09-18T03:05:10;10.40;;;7.05;;
39956;SDS011;48483;44.640;7.494;2023-09-18T03:07:38;9.57;;;6.35;;
39956;SDS011;48483;44.640;7.494;2023-09-18T03:10:06;9.55;;;5.43;;
39956;SDS011;48483;44.640;7.494;2023-09-18T03:12:34;9.75;;;6.30;;
39956;SDS011;48483;44.640;7.494;2023-09-18T03:15:01;11.85;;;6.45;;
39956;SDS011;48483;44.640;7.494;2023-09-18T03:17:29;10.98;;;7.03;;
39956;SDS011;48483;44.640;7.494;2023-09-18T03:19:56;9.30;;;6.63;;
39956;SDS011;48483;44.640;7.494;2023-09-18T03:22:23;11.05;;;6.28;;
39956;SDS011;48483;44.640;7.494;2023-09-18T03:24:52;7.78;;;5.80;;
39956;SDS011;48483;44.640;7.494;2023-09-18T03:27:19;8.48;;;6.13;;
39956;SDS011;48483;44.640;7.494;2023-09-18T03:29:46;6.78;;;5.43;;
39956;SDS011;48483;44.640;7.494;2023-09-18T03:32:13;11.07;;;5.53;;
39956;SDS011;48483;44.640;7.494;2023-09-18T03:34:40;8.27;;;5.18;;
39956;SDS011;48483;44.640;7.494;2023-09-18T03:37:07;10.90;;;6.00;;
39956;SDS011;48483;44.640;7.494;2023-09-18T03:39:35;11.77;;;5.82;;
39956;SDS011;48483;44.640;7.494;2023-09-18T03:42:03;9.32;;;6.40;;
39956;SDS011;48483;44.640;7.494;2023-09-18T03:44:30;7.95;;;5.40;;
39956;SDS011;48483;44.640;7.494;2023-09-18T03:46:57;12.75;;;6.65;;
39956;SDS011;48483;44.640;7.494;2023-09-18T03:49:24;9.27;;;5.88;;
39956;SDS011;48483;44.640;7.494;2023-09-18T03:51:52;7.82;;;6.00;;
39956;SDS011;48483;44.640;7.494;2023-09-18T03:54:19;11.93;;;6.32;;
39956;SDS011;48483;44.640;7.494;2023-09-18T03:56:46;11.18;;;6.57;;
39956;SDS011;48483;44.640;7.494;2023-09-18T03:59:14;8.98;;;5.70;;
39956;SDS011;48483;44.640;7.494;2023-09-18T04:01:41;8.40;;;6.70;;
39956;SDS011;48483;44.640;7.494;2023-09-18T04:04:08;12.27;;;6.28;;
39956;SDS011;48483;44.640;7.494;2023-09-18T04:06:40;12.25;;;6.65;;
39956;SDS011;48483;44.640;7.494;2023-09-18T04:09:07;10.52;;;6.15;;
39956;SDS011;48483;44.640;7.494;2023-09-18T04:11:35;8.65;;;6.05;;
39956;SDS011;48483;44.640;7.494;2023-09-18T04:14:01;8.65;;;6.30;;
39956;SDS011;48483;44.640;7.494;2023-09-18T04:16:30;10.95;;;6.70;;
39956;SDS011;48483;44.640;7.494;2023-09-18T04:19:01;9.30;;;6.00;;
39956;SDS011;48483;44.640;7.494;2023-09-18T04:21:28;7.38;;;6.45;;
39956;SDS011;48483;44.640;7.494;2023-09-18T04:23:55;10.75;;;7.70;;
39956;SDS011;48483;44.640;7.494;2023-09-18T04:26:23;10.45;;;7.15;;
39956;SDS011;48483;44.640;7.494;2023-09-18T04:28:50;10.40;;;6.32;;
39956;SDS011;48483;44.640;7.494;2023-09-18T04:31:17;10.15;;;6.70;;
39956;SDS011;48483;44.640;7.494;2023-09-18T04:33:45;9.73;;;6.80;;
39956;SDS011;48483;44.640;7.494;2023-09-18T04:36:12;13.50;;;6.90;;
39956;SDS011;48483;44.640;7.494;2023-09-18T04:38:39;10.13;;;6.95;;
39956;SDS011;48483;44.640;7.494;2023-09-18T04:41:06;10.60;;;6.35;;
39956;SDS011;48483;44.640;7.494;2023-09-18T04:43:33;10.52;;;6.70;;
39956;SDS011;48483;44.640;7.494;2023-09-18T04:46:01;13.40;;;7.63;;
39956;SDS011;48483;44.640;7.494;2023-09-18T04:48:30;8.98;;;6.40;;
39956;SDS011;48483;44.640;7.494;2023-09-18T04:50:59;8.50;;;5.85;;
39956;SDS011;48483;44.640;7.494;2023-09-18T04:53:29;12.98;;;6.72;;
39956;SDS011;48483;44.640;7.494;2023-09-18T04:55:56;8.80;;;5.68;;
39956;SDS011;48483;44.640;7.494;2023-09-18T04:58:23;11.68;;;7.38;;
39956;SDS011;48483;44.640;7.494;2023-09-18T05:00:53;9.77;;;6.43;;
39956;SDS011;48483;44.640;7.494;2023-09-18T05:03:21;8.77;;;6.13;;
39956;SDS011;48483;44.640;7.494;2023-09-18T05:05:47;9.88;;;5.78;;
39956;SDS011;48483;44.640;7.494;2023-09-18T05:08:16;11.48;;;7.00;;
39956;SDS011;48483;44.640;7.494;2023-09-18T05:10:42;8.52;;;5.80;;
39956;SDS011;48483;44.640;7.494;2023-09-18T05:13:10;13.07;;;6.82;;
39956;SDS011;48483;44.640;7.494;2023-09-18T05:15:37;8.95;;;6.57;;
39956;SDS011;48483;44.640;7.494;2023-09-18T05:18:04;10.30;;;6.25;;
39956;SDS011;48483;44.640;7.494;2023-09-18T05:20:31;10.77;;;6.00;;
39956;SDS011;48483;44.640;7.494;2023-09-18T05:22:58;10.60;;;6.60;;
39956;SDS011;48483;44.640;7.494;2023-09-18T05:25:28;10.10;;;6.38;;
39956;SDS011;48483;44.640;7.494;2023-09-18T05:27:58;8.55;;;6.63;;
39956;SDS011;48483;44.640;7.494;2023-09-18T05:30:28;13.23;;;6.93;;
39956;SDS011;48483;44.640;7.494;2023-09-18T05:32:57;11.02;;;5.60;;
39956;SDS011;48483;44.640;7.494;2023-09-18T05:35:30;11.00;;;6.38;;
39956;SDS011;48483;44.640;7.494;2023-09-18T05:37:57;11.73;;;6.00;;
39956;SDS011;48483;44.640;7.494;2023-09-18T05:40:24;13.40;;;6.45;;
39956;SDS011;48483;44.640;7.494;2023-09-18T05:42:56;10.20;;;5.95;;
39956;SDS011;48483;44.640;7.494;2023-09-18T05:45:23;13.50;;;6.00;;
39956;SDS011;48483;44.640;7.494;2023-09-18T05:47:50;11.23;;;7.07;;
39956;SDS011;48483;44.640;7.494;2023-09-18T05:50:19;11.32;;;6.82;;
39956;SDS011;48483;44.640;7.494;2023-09-18T05:52:47;11.82;;;7.68;;
39956;SDS011;48483;44.640;7.494;2023-09-18T05:55:17;9.07;;;6.55;;
39956;SDS011;48483;44.640;7.494;2023-09-18T05:57:44;9.77;;;6.25;;
39956;SDS011;48483;44.640;7.494;2023-09-18T06:00:13;8.98;;;6.65;;
39956;SDS011;48483;44.640;7.494;2023-09-18T06:02:40;13.98;;;9.10;;
39956;SDS011;48483;44.640;7.494;2023-09-18T06:05:07;10.25;;;6.97;;
39956;SDS011;48483;44.640;7.494;2023-09-18T06:07:37;10.57;;;7.30;;
39956;SDS011;48483;44.640;7.494;2023-09-18T06:10:04;13.52;;;7.03;;
39956;SDS011;48483;44.640;7.494;2023-09-18T06:12:32;13.23;;;6.95;;
39956;SDS011;48483;44.640;7.494;2023-09-18T06:14:59;9.40;;;7.18;;
39956;SDS011;48483;44.640;7.494;2023-09-18T06:17:27;13.23;;;8.02;;
39956;SDS011;48483;44.640;7.494;2023-09-18T06:19:53;12.63;;;7.20;;
39956;SDS011;48483;44.640;7.494;2023-09-18T06:22:21;10.77;;;7.03;;
39956;SDS011;48483;44.640;7.494;2023-09-18T06:24:48;9.82;;;6.78;;
39956;SDS011;48483;44.640;7.494;2023-09-18T06:27:14;10.77;;;7.35;;
39956;SDS011;48483;44.640;7.494;2023-09-18T06:29:41;13.35;;;7.45;;
39956;SDS011;48483;44.640;7.494;2023-09-18T06:32:09;12.27;;;7.68;;
39956;SDS011;48483;44.640;7.494;2023-09-18T06:34:37;12.43;;;7.90;;
39956;SDS011;48483;44.640;7.494;2023-09-18T06:37:04;13.32;;;6.70;;
39956;SDS011;48483;44.640;7.494;2023-09-18T06:39:33;8.68;;;5.93;;
39956;SDS011;48483;44.640;7.494;2023-09-18T06:42:00;10.13;;;5.95;;
39956;SDS011;48483;44.640;7.494;2023-09-18T06:44:26;8.85;;;5.97;;
39956;SDS011;48483;44.640;7.494;2023-09-18T06:46:53;12.93;;;8.93;;
39956;SDS011;48483;44.640;7.494;2023-09-18T06:49:20;9.10;;;6.50;;
39956;SDS011;48483;44.640;7.494;2023-09-18T06:51:48;9.57;;;6.40;;
39956;SDS011;48483;44.640;7.494;2023-09-18T06:54:14;15.13;;;6.13;;
39956;SDS011;48483;44.640;7.494;2023-09-18T06:56:41;13.15;;;7.50;;
39956;SDS011;48483;44.640;7.494;2023-09-18T06:59:10;10.48;;;6.25;;
39956;SDS011;48483;44.640;7.494;2023-09-18T07:01:37;11.30;;;6.35;;
39956;SDS011;48483;44.640;7.494;2023-09-18T07:04:06;9.60;;;7.32;;
39956;SDS011;48483;44.640;7.494;2023-09-18T07:06:33;11.00;;;7.72;;
39956;SDS011;48483;44.640;7.494;2023-09-18T07:09:01;13.70;;;9.38;;
39956;SDS011;48483;44.640;7.494;2023-09-18T07:11:30;13.35;;;7.32;;
39956;SDS011;48483;44.640;7.494;2023-09-18T07:13:57;9.13;;;7.03;;
39956;SDS011;48483;44.640;7.494;2023-09-18T07:16:24;12.75;;;7.68;;
39956;SDS011;48483;44.640;7.494;2023-09-18T07:18:50;9.80;;;7.38;;
39956;SDS011;48483;44.640;7.494;2023-09-18T07:21:17;10.40;;;7.80;;
39956;SDS011;48483;44.640;7.494;2023-09-18T07:23:45;10.38;;;7.40;;
39956;SDS011;48483;44.640;7.494;2023-09-18T07:26:14;11.82;;;7.25;;
39956;SDS011;48483;44.640;7.494;2023-09-18T07:28:41;12.45;;;8.02;;
39956;SDS011;48483;44.640;7.494;2023-09-18T07:31:11;10.73;;;7.72;;
39956;SDS011;48483;44.640;7.494;2023-09-18T07:33:38;10.00;;;7.70;;
39956;SDS011;48483;44.640;7.494;2023-09-18T07:36:05;9.50;;;7.63;;
39956;SDS011;48483;44.640;7.494;2023-09-18T07:38:32;13.25;;;7.72;;
39956;SDS011;48483;44.640;7.494;2023-09-18T07:40:59;11.25;;;7.93;;
39956;SDS011;48483;44.640;7.494;2023-09-18T07:43:27;11.05;;;7.47;;
39956;SDS011;48483;44.640;7.494;2023-09-18T07:45:53;11.55;;;7.70;;
39956;SDS011;48483;44.640;7.494;2023-09-18T07:48:21;13.10;;;7.75;;
39956;SDS011;48483;44.640;7.494;2023-09-18T07:50:48;14.18;;;8.20;;
39956;SDS011;48483;44.640;7.494;2023-09-18T07:53:15;14.90;;;8.68;;
39956;SDS011;48483;44.640;7.494;2023-09-18T07:55:42;10.88;;;7.60;;
39956;SDS011;48483;44.640;7.494;2023-09-18T07:58:09;11.68;;;8.60;;
39956;SDS011;48483;44.640;7.494;2023-09-18T08:00:38;18.17;;;10.43;;
39956;SDS011;48483;44.640;7.494;2023-09-18T08:03:05;12.98;;;10.38;;
39956;SDS011;48483;44.640;7.494;2023-09-18T08:05:32;14.20;;;9.70;;
39956;SDS011;48483;44.640;7.494;2023-09-18T08:07:58;14.95;;;10.40;;
39956;SDS011;48483;44.640;7.494;2023-09-18T08:10:26;22.52;;;13.05;;
39956;SDS011;48483;44.640;7.494;2023-09-18T08:12:53;16.98;;;11.00;;
39956;SDS011;48483;44.640;7.494;2023-09-18T08:15:19;15.00;;;10.70;;
39956;SDS011;48483;44.640;7.494;2023-09-18T08:17:48;13.52;;;10.27;;
39956;SDS011;48483;44.640;7.494;2023-09-18T08:20:15;15.18;;;10.55;;
39956;SDS011;48483;44.640;7.494;2023-09-18T08:22:42;15.18;;;10.73;;
39956;SDS011;48483;44.640;7.494;2023-09-18T08:25:09;16.38;;;9.93;;
39956;SDS011;48483;44.640;7.494;2023-09-18T08:27:37;13.93;;;9.27;;
39956;SDS011;48483;44.640;7.494;2023-09-18T08:30:08;12.75;;;9.90;;
39956;SDS011;48483;44.640;7.494;2023-09-18T08:32:36;14.15;;;10.05;;
39956;SDS011;48483;44.640;7.494;2023-09-18T08:35:04;16.90;;;10.05;;
39956;SDS011;48483;44.640;7.494;2023-09-18T08:37:32;18.90;;;12.45;;
39956;SDS011;48483;44.640;7.494;2023-09-18T08:39:59;15.25;;;9.90;;
39956;SDS011;48483;44.640;7.494;2023-09-18T08:42:35;14.73;;;10.73;;
39956;SDS011;48483;44.640;7.494;2023-09-18T08:45:05;13.98;;;10.30;;
39956;SDS011;48483;44.640;7.494;2023-09-18T08:47:35;12.98;;;10.00;;
39956;SDS011;48483;44.640;7.494;2023-09-18T08:50:06;13.35;;;9.25;;
39956;SDS011;48483;44.640;7.494;2023-09-18T08:52:35;17.33;;;11.10;;
39956;SDS011;48483;44.640;7.494;2023-09-18T08:55:02;16.92;;;12.15;;
39956;SDS011;48483;44.640;7.494;2023-09-18T08:57:30;20.80;;;12.88;;
39956;SDS011;48483;44.640;7.494;2023-09-18T08:59:58;19.38;;;13.38;;
39956;SDS011;48483;44.640;7.494;2023-09-18T09:02:28;18.83;;;12.93;;
39956;SDS011;48483;44.640;7.494;2023-09-18T09:04:54;17.67;;;12.32;;
39956;SDS011;48483;44.640;7.494;2023-09-18T09:07:22;16.83;;;13.48;;
39956;SDS011;48483;44.640;7.494;2023-09-18T09:09:51;19.33;;;15.02;;
39956;SDS011;48483;44.640;7.494;2023-09-18T09:12:18;17.95;;;12.45;;
39956;SDS011;48483;44.640;7.494;2023-09-18T09:15:15;16.25;;;12.60;;
39956;SDS011;48483;44.640;7.494;2023-09-18T09:17:42;16.77;;;13.93;;
39956;SDS011;48483;44.640;7.494;2023-09-18T09:20:10;19.15;;;13.82;;
39956;SDS011;48483;44.640;7.494;2023-09-18T09:22:39;18.15;;;14.05;;
39956;SDS011;48483;44.640;7.494;2023-09-18T09:27:52;19.48;;;13.98;;
39956;SDS011;48483;44.640;7.494;2023-09-18T09:30:20;14.38;;;11.93;;
39956;SDS011;48483;44.640;7.494;2023-09-18T09:32:49;16.73;;;12.00;;
39956;SDS011;48483;44.640;7.494;2023-09-18T09:35:21;17.13;;;12.52;;
39956;SDS011;48483;44.640;7.494;2023-09-18T09:37:50;15.90;;;12.55;;
39956;SDS011;48483;44.640;7.494;2023-09-18T09:40:18;19.70;;;14.32;;
39956;SDS011;48483;44.640;7.494;2023-09-18T09:42:45;19.13;;;14.75;;
39956;SDS011;48483;44.640;7.494;2023-09-18T09:45:31;19.98;;;15.25;;
39956;SDS011;48483;44.640;7.494;2023-09-18T09:48:02;18.70;;;14.52;;
39956;SDS011;48483;44.640;7.494;2023-09-18T09:50:31;15.53;;;12.83;;
39956;SDS011;48483;44.640;7.494;2023-09-18T09:53:00;15.15;;;13.13;;
39956;SDS011;48483;44.640;7.494;2023-09-18T09:55:27;18.50;;;13.60;;
39956;SDS011;48483;44.640;7.494;2023-09-18T09:57:56;19.33;;;15.07;;
39956;SDS011;48483;44.640;7.494;2023-09-18T10:00:26;20.25;;;15.15;;
39956;SDS011;48483;44.640;7.494;2023-09-18T10:02:59;30.90;;;16.73;;
39956;SDS011;48483;44.640;7.494;2023-09-18T10:05:31;18.57;;;15.97;;
39956;SDS011;48483;44.640;7.494;2023-09-18T10:08:01;19.77;;;14.15;;
39956;SDS011;48483;44.640;7.494;2023-09-18T10:10:33;19.77;;;13.57;;
39956;SDS011;48483;44.640;7.494;2023-09-18T10:13:07;16.17;;;12.13;;
39956;SDS011;48483;44.640;7.494;2023-09-18T10:15:36;17.30;;;13.90;;
39956;SDS011;48483;44.640;7.494;2023-09-18T10:18:05;18.55;;;13.23;;
39956;SDS011;48483;44.640;7.494;2023-09-18T10:20:37;15.70;;;12.50;;
39956;SDS011;48483;44.640;7.494;2023-09-18T10:23:15;14.23;;;10.45;;
39956;SDS011;48483;44.640;7.494;2023-09-18T10:25:51;15.20;;;12.20;;
39956;SDS011;48483;44.640;7.494;2023-09-18T10:28:23;17.00;;;12.80;;
39956;SDS011;48483;44.640;7.494;2023-09-18T10:30:55;20.75;;;15.15;;
39956;SDS011;48483;44.640;7.494;2023-09-18T10:33:23;21.38;;;14.43;;
39956;SDS011;48483;44.640;7.494;2023-09-18T10:35:50;19.13;;;12.82;;
39956;SDS011;48483;44.640;7.494;2023-09-18T10:38:20;15.48;;;12.00;;
39956;SDS011;48483;44.640;7.494;2023-09-18T10:40:48;17.95;;;13.10;;
39956;SDS011;48483;44.640;7.494;2023-09-18T10:43:15;19.27;;;15.65;;
39956;SDS011;48483;44.640;7.494;2023-09-18T10:45:43;17.35;;;12.85;;
39956;SDS011;48483;44.640;7.494;2023-09-18T10:48:11;21.40;;;14.90;;
39956;SDS011;48483;44.640;7.494;2023-09-18T10:50:39;18.55;;;13.70;;
39956;SDS011;48483;44.640;7.494;2023-09-18T10:53:09;15.77;;;12.87;;
39956;SDS011;48483;44.640;7.494;2023-09-18T10:55:37;19.00;;;13.23;;
39956;SDS011;48483;44.640;7.494;2023-09-18T10:58:04;14.65;;;10.88;;
39956;SDS011;48483;44.640;7.494;2023-09-18T11:00:32;15.88;;;12.40;;
39956;SDS011;48483;44.640;7.494;2023-09-18T11:03:08;16.92;;;13.13;;
39956;SDS011;48483;44.640;7.494;2023-09-18T11:05:37;16.63;;;12.93;;
39956;SDS011;48483;44.640;7.494;2023-09-18T11:10:57;16.92;;;11.80;;
39956;SDS011;48483;44.640;7.494;2023-09-18T11:13:28;17.47;;;12.10;;
39956;SDS011;48483;44.640;7.494;2023-09-18T11:15:58;15.23;;;10.95;;
39956;SDS011;48483;44.640;7.494;2023-09-18T11:18:31;15.65;;;12.25;;
39956;SDS011;48483;44.640;7.494;2023-09-18T11:21:08;15.80;;;12.52;;
39956;SDS011;48483;44.640;7.494;2023-09-18T11:23:36;18.95;;;13.88;;
39956;SDS011;48483;44.640;7.494;2023-09-18T11:26:10;16.80;;;12.85;;
39956;SDS011;48483;44.640;7.494;2023-09-18T11:28:37;19.23;;;14.18;;
39956;SDS011;48483;44.640;7.494;2023-09-18T11:31:04;16.75;;;13.60;;
39956;SDS011;48483;44.640;7.494;2023-09-18T11:33:35;20.55;;;15.68;;
39956;SDS011;48483;44.640;7.494;2023-09-18T11:36:03;19.73;;;14.43;;
39956;SDS011;48483;44.640;7.494;2023-09-18T11:38:34;19.38;;;15.40;;
39956;SDS011;48483;44.640;7.494;2023-09-18T11:43:48;26.33;;;16.88;;
39956;SDS011;48483;44.640;7.494;2023-09-18T11:46:17;26.23;;;16.50;;
39956;SDS011;48483;44.640;7.494;2023-09-18T11:48:46;19.58;;;16.25;;
39956;SDS011;48483;44.640;7.494;2023-09-18T11:51:20;24.70;;;16.77;;
39956;SDS011;48483;44.640;7.494;2023-09-18T11:53:49;23.10;;;16.42;;
39956;SDS011;48483;44.640;7.494;2023-09-18T11:56:21;17.42;;;14.60;;
39956;SDS011;48483;44.640;7.494;2023-09-18T11:58:49;20.98;;;16.58;;
39956;SDS011;48483;44.640;7.494;2023-09-18T12:01:17;23.35;;;16.95;;
39956;SDS011;48483;44.640;7.494;2023-09-18T12:03:45;18.15;;;14.70;;
39956;SDS011;48483;44.640;7.494;2023-09-18T12:06:13;24.30;;;17.13;;
39956;SDS011;48483;44.640;7.494;2023-09-18T12:08:40;22.70;;;16.48;;
39956;SDS011;48483;44.640;7.494;2023-09-18T12:11:07;20.35;;;14.60;;
39956;SDS011;48483;44.640;7.494;2023-09-18T12:13:35;19.73;;;14.93;;
39956;SDS011;48483;44.640;7.494;2023-09-18T12:16:04;20.60;;;14.82;;
39956;SDS011;48483;44.640;7.494;2023-09-18T12:18:32;21.55;;;15.43;;
39956;SDS011;48483;44.640;7.494;2023-09-18T12:21:05;15.43;;;13.55;;
39956;SDS011;48483;44.640;7.494;2023-09-18T12:23:39;21.33;;;15.77;;
39956;SDS011;48483;44.640;7.494;2023-09-18T12:26:06;21.58;;;16.08;;
39956;SDS011;48483;44.640;7.494;2023-09-18T12:28:33;21.85;;;14.07;;
39956;SDS011;48483;44.640;7.494;2023-09-18T12:31:03;16.67;;;13.57;;
39956;SDS011;48483;44.640;7.494;2023-09-18T12:33:33;18.52;;;13.40;;
39956;SDS011;48483;44.640;7.494;2023-09-18T12:36:01;17.70;;;13.43;;
39956;SDS011;48483;44.640;7.494;2023-09-18T12:38:28;22.50;;;15.18;;
39956;SDS011;48483;44.640;7.494;2023-09-18T12:40:56;20.75;;;14.40;;
39956;SDS011;48483;44.640;7.494;2023-09-18T12:43:30;17.15;;;13.15;;
39956;SDS011;48483;44.640;7.494;2023-09-18T12:46:04;16.83;;;13.07;;
39956;SDS011;48483;44.640;7.494;2023-09-18T12:48:32;17.17;;;14.35;;
39956;SDS011;48483;44.640;7.494;2023-09-18T12:51:02;17.90;;;13.65;;
39956;SDS011;48483;44.640;7.494;2023-09-18T12:53:29;20.35;;;14.80;;
39956;SDS011;48483;44.640;7.494;2023-09-18T12:56:04;19.98;;;14.70;;
39956;SDS011;48483;44.640;7.494;2023-09-18T12:58:32;23.70;;;15.15;;
39956;SDS011;48483;44.640;7.494;2023-09-18T13:01:03;18.08;;;14.27;;
39956;SDS011;48483;44.640;7.494;2023-09-18T13:03:34;17.00;;;12.88;;
39956;SDS011;48483;44.640;7.494;2023-09-18T13:06:09;17.95;;;14.20;;
39956;SDS011;48483;44.640;7.494;2023-09-18T13:08:36;21.13;;;14.13;;
39956;SDS011;48483;44.640;7.494;2023-09-18T13:11:03;17.40;;;13.23;;
39956;SDS011;48483;44.640;7.494;2023-09-18T13:13:32;14.48;;;12.50;;
39956;SDS011;48483;44.640;7.494;2023-09-18T13:16:00;19.35;;;14.23;;
39956;SDS011;48483;44.640;7.494;2023-09-18T13:18:31;17.88;;;12.73;;
39956;SDS011;48483;44.640;7.494;2023-09-18T13:20:58;17.23;;;13.23;;
39956;SDS011;48483;44.640;7.494;2023-09-18T13:23:28;21.90;;;14.57;;
39956;SDS011;48483;44.640;7.494;2023-09-18T13:28:26;21.90;;;13.80;;
39956;SDS011;48483;44.640;7.494;2023-09-18T13:30:53;19.75;;;14.90;;
39956;SDS011;48483;44.640;7.494;2023-09-18T13:33:21;19.73;;;14.07;;
39956;SDS011;48483;44.640;7.494;2023-09-18T13:35:48;17.85;;;14.35;;
39956;SDS011;48483;44.640;7.494;2023-09-18T13:38:15;16.70;;;14.35;;
39956;SDS011;48483;44.640;7.494;2023-09-18T13:40:42;16.80;;;14.13;;
39956;SDS011;48483;44.640;7.494;2023-09-18T13:43:10;18.52;;;15.05;;
39956;SDS011;48483;44.640;7.494;2023-09-18T13:45:38;19.95;;;14.95;;
39956;SDS011;48483;44.640;7.494;2023-09-18T13:48:05;19.73;;;15.23;;
39956;SDS011;48483;44.640;7.494;2023-09-18T13:50:34;20.23;;;15.93;;
39956;SDS011;48483;44.640;7.494;2023-09-18T13:53:02;19.35;;;15.60;;
39956;SDS011;48483;44.640;7.494;2023-09-18T13:55:32;19.40;;;15.63;;
39956;SDS011;48483;44.640;7.494;2023-09-18T13:57:59;18.58;;;14.68;;
39956;SDS011;48483;44.640;7.494;2023-09-18T14:00:29;24.20;;;16.98;;
39956;SDS011;48483;44.640;7.494;2023-09-18T14:02:55;19.95;;;15.52;;
39956;SDS011;48483;44.640;7.494;2023-09-18T14:05:22;21.38;;;15.73;;
39956;SDS011;48483;44.640;7.494;2023-09-18T14:07:51;24.83;;;16.70;;
39956;SDS011;48483;44.640;7.494;2023-09-18T14:10:23;20.52;;;16.15;;
39956;SDS011;48483;44.640;7.494;2023-09-18T14:12:49;23.60;;;17.25;;
39956;SDS011;48483;44.640;7.494;2023-09-18T14:15:16;25.58;;;17.30;;
39956;SDS011;48483;44.640;7.494;2023-09-18T14:17:44;21.95;;;16.65;;
39956;SDS011;48483;44.640;7.494;2023-09-18T14:20:11;19.90;;;17.17;;
39956;SDS011;48483;44.640;7.494;2023-09-18T14:22:38;25.95;;;18.27;;
39956;SDS011;48483;44.640;7.494;2023-09-18T14:25:06;24.25;;;15.32;;
39956;SDS011;48483;44.640;7.494;2023-09-18T14:27:34;25.70;;;16.38;;
39956;SDS011;48483;44.640;7.494;2023-09-18T14:30:01;23.73;;;17.75;;
39956;SDS011;48483;44.640;7.494;2023-09-18T14:32:32;21.42;;;17.33;;
39956;SDS011;48483;44.640;7.494;2023-09-18T14:34:59;27.10;;;17.42;;
39956;SDS011;48483;44.640;7.494;2023-09-18T14:37:28;26.15;;;18.23;;
39956;SDS011;48483;44.640;7.494;2023-09-18T14:39:55;22.60;;;18.58;;
39956;SDS011;48483;44.640;7.494;2023-09-18T14:42:24;21.88;;;16.92;;
39956;SDS011;48483;44.640;7.494;2023-09-18T14:44:50;22.20;;;17.65;;
39956;SDS011;48483;44.640;7.494;2023-09-18T14:47:17;20.45;;;16.30;;
39956;SDS011;48483;44.640;7.494;2023-09-18T14:49:44;23.13;;;16.23;;